Yountville, CA

10:47 PM PDT on September 30, 2014 (GMT -0700)
Yountville Deli (Washington St) | Change Station
CLOSE
Current Station
Personal Weather Station
Location: Yountville, CA
Elevation: 29 m
Nearby Weather Stations

Elev 29 m 38.40 °N, 122.36 °W | Updated 29 seconds ago

Clear
Clear
15.4 °C
Feels Like 15.4 °C
N
0.0
Wind Variable Wind from WSW
Gusts 0.0 km/h

Today
High -- | Low -- °C
--% Chance of Precip.
Yesterday
High -- | Low -- °C
Precip. -- mm
7:04 AM 6:53 PM
Waxing Crescent, 44% visible
Pressure 1010 hPa
Visibility 16.1 kilometers
Clouds Clear
Dew Point 13 °C
Humidity 88%
Rainfall 0 mm
Snow Depth 1 in , 12 in , 0 in
UV 0 out of 12
Pollen 5.20 out of 12
Ozone Good
Flu Activity Not available.
METAR KAPC 010454Z AUTO 11004KT 10SM CLR 17/13 A2984 RMK AO2 SLP096 T01670133

More Conditions Fewer Conditions

Pressure 1010 hPa
Visibility 16.1 kilometers
Clouds Clear
Dew Point 13 °C
Humidity 88%
Rainfall 0 mm
Snow Depth 1 in , 12 in , 0 in
UV 0 out of 12
Pollen 5.20 out of 12
Ozone Good
Flu Activity Not available.
METAR KAPC 010454Z AUTO 11004KT 10SM CLR 17/13 A2984 RMK AO2 SLP096 T01670133

More Conditions Fewer Conditions

10-Day Weather Forecast

Almanac

Astronomy

Sep. 30, 2014 Rise Set
Actual Time 7:04 AM PDT 6:53 PM PDT
Civil Twilight 6:38 AM PDT 7:20 PM PDT
Nautical Twilight 6:07 AM PDT 7:50 PM PDT
Astronomical Twilight 5:36 AM PDT 8:21 PM PDT
Moon 1:13 PM PDT (9/30) 11:32 PM PDT (9/30)
Length of Visible Light 12h 42m
Length of Day
11h 49m
Tomorrow will be 2m 28s shorter.
Waxing Crescent, 44% of the Moon is Illuminated
Oct 1
Waxing Crescent
Oct 1
First Quarter
Oct 8
Full
Oct 15
Last Quarter
Oct 23
New

Yesterday's Extremes

State Highs State Lows

Community

WunderPhotos

Upload Photos

1,757,875 photos uploaded!

Nearby

Air Quality

  Air Quality AQ Index Pollutant
Yesterday Good
OZONE
Current Good
OZONE
Tuesday Good
PM2.5
Wednesday Good
PM2.5
Thursday Moderate
PM2.5
Friday Moderate
PM2.5
Saturday Moderate
PM2.5
Sunday Moderate
PM2.5

Snow Depth

Station Depth Elevation
Leavitt Lake 1 in 9400 ft
Forestdale Creek 12 in 8029 ft
Blue Lakes 0 in 8000 ft
Rubicon #2 0 in 7500 ft
Heavenly Valley 0 in 8850 ft

Earthquake Activity

City Distance Mag. Time & Date
East Foothills, California 115 kilometers 2.6 3:34 PM PDT
2014-09-30
South Dos Palos, California 238 kilometers 2.7 3:08 PM PDT
2014-09-30
South Dos Palos, California 237 kilometers 2.5 9:18 PM PDT
2014-09-29
American Canyon, California 25 kilometers 2.5 12:17 AM PDT
2014-09-29
Minimum magnitude displayed is 2.5.

Coastal Water Temperatures

Place Temperature
San Francisco, CA 17.8 °C
Richmond, CA 20.0 °C
Port Chicago, CA 21.1 °C

Nearby Weather Stations